createdAt,value
2022-08-29T00:00:06.640Z,101893.78
2022-08-29T00:02:34.332Z,101894.25
2022-08-29T00:05:02.377Z,101886.38
2022-08-29T00:07:28.874Z,101887.41
2022-08-29T00:09:55.170Z,101883.22
2022-08-29T00:12:21.496Z,101889.56
2022-08-29T00:14:47.827Z,101895.91
2022-08-29T00:17:14.156Z,101889.69
2022-08-29T00:19:41.835Z,101890.00
2022-08-29T00:22:08.199Z,101894.00
2022-08-29T00:24:34.533Z,101894.31
2022-08-29T00:27:00.852Z,101896.31
2022-08-29T00:29:27.495Z,101892.94
2022-08-29T00:31:53.884Z,101894.09
2022-08-29T00:34:20.359Z,101890.06
2022-08-29T00:36:49.067Z,101895.56
2022-08-29T00:39:15.879Z,101892.34
2022-08-29T00:41:42.543Z,101893.53
2022-08-29T00:44:08.856Z,101901.00
2022-08-29T00:46:43.297Z,101897.50
2022-08-29T00:49:12.450Z,101901.31
2022-08-29T00:51:39.836Z,101902.41
2022-08-29T00:54:09.324Z,101901.06
2022-08-29T00:56:36.762Z,101895.34
2022-08-29T00:59:06.990Z,101895.63
2022-08-29T01:01:33.552Z,101901.31
2022-08-29T01:03:59.979Z,101900.78
2022-08-29T01:06:27.039Z,101906.56
2022-08-29T01:08:57.705Z,101912.22
2022-08-29T01:11:28.105Z,101910.56
2022-08-29T01:13:54.768Z,101912.81
2022-08-29T01:16:21.618Z,101911.47
2022-08-29T01:18:51.134Z,101904.75
2022-08-29T01:21:21.901Z,101907.72
2022-08-29T01:23:52.826Z,101902.84
2022-08-29T01:26:21.183Z,101902.16
2022-08-29T01:28:51.337Z,101906.94
2022-08-29T01:31:38.608Z,101903.44
2022-08-29T01:34:05.560Z,101909.75
2022-08-29T01:36:33.300Z,101912.28
2022-08-29T01:38:59.691Z,101912.84
2022-08-29T01:41:27.771Z,101905.81
2022-08-29T01:43:55.431Z,101906.78
2022-08-29T01:46:24.122Z,101906.44
2022-08-29T01:48:50.461Z,101906.03
2022-08-29T01:51:16.809Z,101907.16
2022-08-29T01:53:43.228Z,101917.47
2022-08-29T01:56:10.487Z,101908.91
2022-08-29T01:58:38.257Z,101911.16
2022-08-29T02:01:04.793Z,101913.75
2022-08-29T02:03:31.199Z,101910.56
2022-08-29T02:05:59.621Z,101912.38
2022-08-29T02:08:25.934Z,101910.56
2022-08-29T02:10:52.226Z,101907.56
2022-08-29T02:13:18.546Z,101904.63
2022-08-29T02:15:46.199Z,101901.94
2022-08-29T02:18:12.510Z,101903.06
2022-08-29T02:20:38.862Z,101903.22
2022-08-29T02:23:10.609Z,101904.38
2022-08-29T02:25:43.722Z,101900.03
2022-08-29T02:28:10.404Z,101899.72
2022-08-29T02:30:36.710Z,101911.22
2022-08-29T02:33:04.942Z,101903.22
2022-08-29T02:35:35.025Z,101908.19
2022-08-29T02:38:02.927Z,101911.41
2022-08-29T02:40:31.621Z,101909.06
2022-08-29T02:42:58.818Z,101912.16
2022-08-29T02:45:25.155Z,101907.59
2022-08-29T02:47:51.462Z,101909.56
2022-08-29T02:50:19.675Z,101904.06
2022-08-29T02:52:46.171Z,101911.22
2022-08-29T02:55:13.899Z,101914.47
2022-08-29T02:57:40.240Z,101920.03
2022-08-29T03:00:09.628Z,101918.63
2022-08-29T03:02:36.012Z,101915.44
2022-08-29T03:05:02.446Z,101923.44
2022-08-29T03:07:30.102Z,101918.25
2022-08-29T03:09:56.402Z,101907.72
2022-08-29T03:12:22.759Z,101910.53
2022-08-29T03:14:49.071Z,101909.16
2022-08-29T03:17:15.792Z,101904.41
2022-08-29T03:19:42.112Z,101907.22
2022-08-29T03:22:08.739Z,101906.38
2022-08-29T03:24:36.498Z,101911.72
2022-08-29T03:27:02.944Z,101904.69
2022-08-29T03:29:29.347Z,101896.69
2022-08-29T03:31:55.892Z,101897.81
2022-08-29T03:34:22.199Z,101904.84
2022-08-29T03:36:48.515Z,101899.63
2022-08-29T03:39:14.833Z,101894.63
2022-08-29T03:41:42.550Z,101894.91
2022-08-29T03:44:08.906Z,101890.69
2022-08-29T03:46:35.393Z,101882.00
2022-08-29T03:49:01.954Z,101882.97
2022-08-29T03:51:29.303Z,101890.97
2022-08-29T03:53:55.939Z,101890.00
2022-08-29T03:56:22.275Z,101882.69
2022-08-29T03:58:53.071Z,101877.22
2022-08-29T04:01:20.572Z,101879.75
2022-08-29T04:03:47.214Z,101875.94
2022-08-29T04:06:13.506Z,101871.28
2022-08-29T04:08:39.826Z,101866.50
2022-08-29T04:11:08.844Z,101859.22
2022-08-29T04:13:35.157Z,101851.22
2022-08-29T04:16:08.122Z,101859.22
2022-08-29T04:18:34.450Z,101858.22
2022-08-29T04:21:01.425Z,101854.56
2022-08-29T04:23:27.751Z,101856.41
2022-08-29T04:26:12.520Z,101871.56
2022-08-29T04:28:40.458Z,101861.88
2022-08-29T04:31:11.321Z,101876.75
2022-08-29T04:33:37.674Z,101881.94
2022-08-29T04:36:05.103Z,101870.13
2022-08-29T04:38:31.428Z,101885.13
2022-08-29T04:40:57.914Z,101881.63
2022-08-29T04:43:24.211Z,101882.63
2022-08-29T04:45:53.819Z,101873.94
2022-08-29T04:48:21.504Z,101878.44
2022-08-29T04:50:52.842Z,101878.13
2022-08-29T04:53:19.174Z,101881.94
2022-08-29T04:55:45.502Z,101888.13
2022-08-29T04:58:11.806Z,101885.28
2022-08-29T05:00:38.383Z,101893.13
2022-08-29T05:03:04.775Z,101899.31
2022-08-29T05:05:32.478Z,101897.34
2022-08-29T05:07:58.796Z,101903.53
2022-08-29T05:10:25.135Z,101912.22
2022-08-29T05:12:51.483Z,101914.47
2022-08-29T05:15:18.010Z,101915.03
2022-08-29T05:17:44.501Z,101920.22
2022-08-29T05:20:11.492Z,101916.84
2022-08-29T05:22:39.730Z,101913.50
2022-08-29T05:25:06.685Z,101904.63
2022-08-29T05:27:32.990Z,101917.69
2022-08-29T05:29:59.318Z,101927.38
2022-08-29T05:32:25.651Z,101931.59
2022-08-29T05:34:51.982Z,101936.34
2022-08-29T05:37:20.371Z,101938.72
2022-08-29T05:39:48.700Z,101922.28
2022-08-29T05:42:15.545Z,101930.81
2022-08-29T05:44:41.865Z,101934.59
2022-08-29T05:47:09.318Z,101935.66
2022-08-29T05:49:36.064Z,101938.72
2022-08-29T05:52:02.643Z,101937.97
2022-08-29T05:54:30.225Z,101936.69
2022-08-29T05:56:58.046Z,101946.22
2022-08-29T05:59:24.419Z,101946.63
2022-08-29T06:01:50.960Z,101949.81
2022-08-29T06:04:17.359Z,101943.91
2022-08-29T06:06:43.667Z,101946.78
2022-08-29T06:09:11.100Z,101945.50
2022-08-29T06:11:37.435Z,101953.91
2022-08-29T06:14:05.579Z,101958.94
2022-08-29T06:16:31.975Z,101947.97
2022-08-29T06:18:58.578Z,101955.81
2022-08-29T06:21:25.291Z,101951.31
2022-08-29T06:23:51.629Z,101950.00
2022-08-29T06:26:18.459Z,101954.06
2022-08-29T06:28:45.521Z,101954.28
2022-08-29T06:31:14.615Z,101951.72
2022-08-29T06:33:41.278Z,101954.34
2022-08-29T06:36:08.814Z,101952.72
2022-08-29T06:38:35.834Z,101954.28
2022-08-29T06:41:02.591Z,101949.34
2022-08-29T06:43:28.920Z,101952.22
2022-08-29T06:45:55.251Z,101952.41
2022-08-29T06:48:25.322Z,101959.53
2022-08-29T06:50:55.242Z,101961.25
2022-08-29T06:53:31.727Z,101957.47
2022-08-29T06:56:02.787Z,101960.41
2022-08-29T06:58:29.375Z,101971.50
2022-08-29T07:00:55.687Z,101966.56
2022-08-29T07:03:23.351Z,101970.97
2022-08-29T07:05:51.114Z,101967.16
2022-08-29T07:08:17.440Z,101979.91
2022-08-29T07:10:44.482Z,101975.91
2022-08-29T07:13:10.825Z,101971.06
2022-08-29T07:15:37.217Z,101975.59
2022-08-29T07:18:03.959Z,101975.25
2022-08-29T07:20:31.604Z,101973.75
2022-08-29T07:22:57.919Z,101981.47
2022-08-29T07:25:24.302Z,101977.47
2022-08-29T07:27:53.444Z,101975.97
2022-08-29T07:30:21.024Z,101976.34
2022-08-29T07:32:47.379Z,101980.00
2022-08-29T07:35:18.377Z,101976.34
2022-08-29T07:37:52.300Z,101970.97
2022-08-29T07:40:18.733Z,101964.78
2022-08-29T07:42:45.166Z,101965.66
2022-08-29T07:45:12.011Z,101969.50
2022-08-29T07:47:38.627Z,101970.34
2022-08-29T07:50:06.302Z,101961.78
2022-08-29T07:52:32.701Z,101960.81
2022-08-29T07:55:00.413Z,101961.66
2022-08-29T07:57:26.956Z,101957.78
2022-08-29T07:59:53.304Z,101949.38
2022-08-29T08:02:19.681Z,101956.03
2022-08-29T08:04:46.109Z,101962.09
2022-08-29T08:07:13.812Z,101962.34
2022-08-29T08:09:40.443Z,101962.16
2022-08-29T08:12:08.527Z,101963.66
2022-08-29T08:14:35.368Z,101969.84
2022-08-29T08:17:01.807Z,101962.94
2022-08-29T08:19:28.150Z,101962.09
2022-08-29T08:21:54.476Z,101962.25
2022-08-29T08:24:21.210Z,101970.16
2022-08-29T08:26:47.610Z,101969.81
2022-08-29T08:29:15.626Z,101963.81
2022-08-29T08:31:42.479Z,101967.38
2022-08-29T08:34:08.805Z,101967.06
2022-08-29T08:36:40.977Z,101965.34
2022-08-29T08:39:07.794Z,101968.75
2022-08-29T08:41:40.338Z,101961.09
2022-08-29T08:44:10.174Z,101953.53
2022-08-29T08:46:40.515Z,101951.13
2022-08-29T08:49:09.840Z,101962.19
2022-08-29T08:51:38.631Z,101961.53
2022-08-29T08:54:08.500Z,101973.81
2022-08-29T08:56:37.020Z,101977.13
2022-08-29T08:59:05.238Z,101973.72
2022-08-29T09:01:33.300Z,101968.88
2022-08-29T09:04:08.234Z,101969.19
2022-08-29T09:06:44.746Z,101966.75
2022-08-29T09:09:14.695Z,101972.69
2022-08-29T09:11:48.028Z,101971.66
2022-08-29T09:14:21.452Z,101970.38
2022-08-29T09:16:49.585Z,101968.34
2022-08-29T09:19:17.558Z,101970.56
2022-08-29T09:21:46.919Z,101974.44
2022-08-29T09:24:17.824Z,101979.25
2022-08-29T09:26:44.175Z,101977.72
2022-08-29T09:29:11.162Z,101975.22
2022-08-29T09:31:37.618Z,101982.47
2022-08-29T09:34:05.426Z,101986.22
2022-08-29T09:36:38.307Z,101996.25
2022-08-29T09:39:12.105Z,101981.44
2022-08-29T09:41:38.513Z,101984.19
2022-08-29T09:44:05.217Z,101979.81
2022-08-29T09:46:31.539Z,101982.28
2022-08-29T09:49:10.966Z,101978.19
2022-08-29T09:51:39.615Z,101974.66
2022-08-29T09:54:13.859Z,101963.88
2022-08-29T09:56:47.227Z,101958.66
2022-08-29T09:59:18.487Z,101960.75
2022-08-29T10:01:44.870Z,101953.41
2022-08-29T10:04:11.237Z,101944.81
2022-08-29T10:06:44.286Z,101949.94
2022-08-29T10:09:24.204Z,101955.19
2022-08-29T10:11:56.322Z,101965.47
2022-08-29T10:14:29.615Z,101966.31
2022-08-29T10:16:59.443Z,101954.63
2022-08-29T10:19:27.120Z,101957.88
2022-08-29T10:22:05.173Z,101956.94
2022-08-29T10:24:39.235Z,101947.34
2022-08-29T10:27:10.430Z,101949.63
2022-08-29T10:29:46.631Z,101948.00
2022-08-29T10:32:17.180Z,101944.75
2022-08-29T10:34:54.490Z,101951.31
2022-08-29T10:37:26.139Z,101947.28
2022-08-29T10:39:55.624Z,101946.31
2022-08-29T10:42:25.013Z,101940.94
2022-08-29T10:44:57.568Z,101938.22
2022-08-29T10:47:32.143Z,101936.28
2022-08-29T10:50:02.885Z,101934.44
2022-08-29T10:52:35.569Z,101938.03
2022-08-29T10:55:08.047Z,101939.31
2022-08-29T10:57:41.943Z,101929.72
2022-08-29T11:00:09.878Z,101927.84
2022-08-29T11:02:40.127Z,101918.91
2022-08-29T11:05:08.975Z,101921.41
2022-08-29T11:07:39.894Z,101921.59
2022-08-29T11:10:10.045Z,101915.13
2022-08-29T11:12:38.476Z,101912.72
2022-08-29T11:15:07.333Z,101908.59
2022-08-29T11:17:35.689Z,101904.28
2022-08-29T11:20:04.220Z,101910.13
2022-08-29T11:22:33.822Z,101907.00
2022-08-29T11:25:05.577Z,101903.03
2022-08-29T11:27:36.445Z,101899.28
2022-08-29T11:30:05.957Z,101897.41
2022-08-29T11:32:38.372Z,101889.28
2022-08-29T11:35:08.651Z,101883.03
2022-08-29T11:37:52.728Z,101889.72
2022-08-29T11:43:18.263Z,101885.97
2022-08-29T11:45:54.118Z,101878.84
2022-08-29T11:48:29.946Z,101872.78
2022-08-29T11:53:29.064Z,101881.38
2022-08-29T11:56:10.265Z,101875.31
2022-08-29T11:58:46.626Z,101882.38
2022-08-29T12:01:33.049Z,101873.56
2022-08-29T12:04:00.410Z,101872.16
2022-08-29T12:06:31.042Z,101874.66
2022-08-29T12:09:04.493Z,101865.84
2022-08-29T12:11:49.598Z,101861.69
2022-08-29T12:14:33.169Z,101865.03
2022-08-29T12:17:04.847Z,101858.75
2022-08-29T12:19:50.819Z,101864.09
2022-08-29T12:22:35.894Z,101860.81
2022-08-29T12:25:22.651Z,101867.03
2022-08-29T12:27:57.566Z,101861.38
2022-08-29T12:30:25.591Z,101865.28
2022-08-29T12:32:56.335Z,101856.31
2022-08-29T12:35:29.331Z,101868.19
2022-08-29T12:38:05.579Z,101861.56
2022-08-29T12:40:44.602Z,101852.00
2022-08-29T12:43:32.137Z,101845.31
2022-08-29T12:46:01.826Z,101843.88
2022-08-29T12:48:31.410Z,101839.13
2022-08-29T12:53:25.265Z,101830.88
2022-08-29T12:55:53.503Z,101836.13
2022-08-29T12:58:33.893Z,101833.78
2022-08-29T13:01:02.029Z,101830.69
2022-08-29T13:03:28.389Z,101824.59
2022-08-29T13:06:03.413Z,101815.25
2022-08-29T13:08:30.634Z,101817.13
2022-08-29T13:10:58.068Z,101815.06
2022-08-29T13:13:25.130Z,101824.06
2022-08-29T13:15:51.634Z,101807.44
2022-08-29T13:18:19.419Z,101814.94
2022-08-29T13:20:47.498Z,101812.06
2022-08-29T13:23:16.628Z,101808.75
2022-08-29T13:25:44.427Z,101809.16
2022-08-29T13:28:13.080Z,101802.91
2022-08-29T13:30:40.491Z,101803.31
2022-08-29T13:33:27.060Z,101810.19
2022-08-29T13:36:23.054Z,101806.28
2022-08-29T13:39:04.248Z,101795.31
2022-08-29T13:41:30.596Z,101787.59
2022-08-29T13:43:56.914Z,101790.75
2022-08-29T13:46:26.546Z,101778.22
2022-08-29T13:48:58.065Z,101783.63
2022-08-29T13:51:25.754Z,101782.59
2022-08-29T13:53:52.102Z,101780.50
2022-08-29T13:56:20.393Z,101775.16
2022-08-29T13:58:46.756Z,101776.00
2022-08-29T14:04:15.263Z,101773.91
2022-08-29T14:06:47.631Z,101773.28
2022-08-29T14:09:15.635Z,101768.03
2022-08-29T14:11:41.968Z,101766.34
2022-08-29T14:14:08.345Z,101769.91
2022-08-29T14:16:34.716Z,101765.53
2022-08-29T14:19:01.039Z,101763.03
2022-08-29T14:21:27.342Z,101763.66
2022-08-29T14:23:54.981Z,101759.75
2022-08-29T14:26:21.667Z,101766.00
2022-08-29T14:28:48.293Z,101763.06
2022-08-29T14:31:15.200Z,101763.28
2022-08-29T14:33:41.699Z,101763.50
2022-08-29T14:36:08.383Z,101758.69
2022-08-29T14:38:34.711Z,101756.63
2022-08-29T14:41:02.368Z,101748.91
2022-08-29T14:43:28.678Z,101746.00
2022-08-29T14:45:55.046Z,101742.25
2022-08-29T14:48:21.428Z,101739.75
2022-08-29T14:50:47.736Z,101746.19
2022-08-29T14:53:14.063Z,101743.28
2022-08-29T14:55:40.389Z,101735.38
2022-08-29T14:58:08.103Z,101732.59
2022-08-29T15:00:34.466Z,101734.28
2022-08-29T15:03:00.843Z,101729.72
2022-08-29T15:05:27.215Z,101737.41
2022-08-29T15:07:53.543Z,101727.19
2022-08-29T15:10:22.165Z,101722.84
2022-08-29T15:12:49.614Z,101722.00
2022-08-29T15:15:17.382Z,101721.38
2022-08-29T15:17:44.048Z,101719.50
2022-08-29T15:20:35.697Z,101715.13
2022-08-29T15:22:57.600Z,101713.22
2022-08-29T15:25:23.978Z,101715.53
2022-08-29T15:27:50.275Z,101705.53
2022-08-29T15:30:19.406Z,101699.13
2022-08-29T15:32:45.743Z,101696.84
2022-08-29T15:35:15.524Z,101700.59
2022-08-29T15:37:41.856Z,101700.59
2022-08-29T15:40:12.905Z,101691.41
2022-08-29T15:42:39.615Z,101693.09
2022-08-29T15:45:07.723Z,101693.91
2022-08-29T15:47:36.211Z,101691.59
2022-08-29T15:50:04.966Z,101697.44
2022-08-29T15:52:31.410Z,101698.66
2022-08-29T15:54:57.743Z,101695.13
2022-08-29T15:57:24.202Z,101697.19
2022-08-29T15:59:58.833Z,101694.25
2022-08-29T16:02:25.584Z,101686.97
2022-08-29T16:04:56.489Z,101691.34
2022-08-29T16:07:23.540Z,101695.72
2022-08-29T16:09:55.296Z,101689.25
2022-08-29T16:12:21.629Z,101691.31
2022-08-29T16:15:07.696Z,101685.69
2022-08-29T16:17:34.243Z,101686.69
2022-08-29T16:20:02.122Z,101687.72
2022-08-29T16:22:28.846Z,101680.25
2022-08-29T16:24:55.194Z,101683.59
2022-08-29T16:27:21.503Z,101689.25
2022-08-29T16:29:47.833Z,101687.56
2022-08-29T16:32:14.159Z,101681.53
2022-08-29T16:34:40.469Z,101684.03
2022-08-29T16:37:08.183Z,101701.34
2022-08-29T16:39:34.486Z,101693.63
2022-08-29T16:42:00.805Z,101688.63
2022-08-29T16:44:27.585Z,101681.97
2022-08-29T16:46:53.899Z,101687.22
2022-08-29T16:49:20.255Z,101678.03
2022-08-29T16:51:46.584Z,101675.56
2022-08-29T16:54:14.280Z,101677.63
2022-08-29T16:56:40.620Z,101680.75
2022-08-29T16:59:07.070Z,101672.47
2022-08-29T17:01:35.042Z,101672.06
2022-08-29T17:04:01.871Z,101676.25
2022-08-29T17:06:28.248Z,101668.75
2022-08-29T17:08:54.594Z,101673.97
2022-08-29T17:11:22.644Z,101665.25
2022-08-29T17:13:48.984Z,101675.66
2022-08-29T17:16:15.434Z,101671.50
2022-08-29T17:18:41.902Z,101673.78
2022-08-29T17:21:08.387Z,101676.53
2022-08-29T17:23:35.619Z,101676.09
2022-08-29T17:26:03.519Z,101672.81
2022-08-29T17:28:31.672Z,101665.72
2022-08-29T17:30:58.090Z,101670.31
2022-08-29T17:33:24.968Z,101675.09
2022-08-29T17:35:51.331Z,101676.13
2022-08-29T17:38:18.420Z,101666.56
2022-08-29T17:40:45.286Z,101671.13
2022-08-29T17:43:11.822Z,101671.56
2022-08-29T17:45:39.528Z,101670.09
2022-08-29T17:48:05.986Z,101677.59
2022-08-29T17:50:32.516Z,101678.81
2022-08-29T17:52:58.945Z,101682.19
2022-08-29T17:55:25.280Z,101683.84
2022-08-29T17:57:56.649Z,101668.47
2022-08-29T18:00:22.983Z,101675.53
2022-08-29T18:02:50.680Z,101683.22
2022-08-29T18:05:17.258Z,101672.19
2022-08-29T18:07:43.607Z,101672.81
2022-08-29T18:10:11.131Z,101670.94
2022-08-29T18:12:37.841Z,101669.06
2022-08-29T18:15:04.308Z,101664.91
2022-08-29T18:17:30.674Z,101667.81
2022-08-29T18:19:58.390Z,101664.44
2022-08-29T18:22:24.722Z,101664.66
2022-08-29T18:24:51.030Z,101661.50
2022-08-29T18:27:17.348Z,101656.47
2022-08-29T18:29:43.692Z,101662.28
2022-08-29T18:32:10.015Z,101657.25
2022-08-29T18:34:36.338Z,101660.78
2022-08-29T18:37:04.148Z,101664.09
2022-08-29T18:39:30.443Z,101667.59
2022-08-29T18:41:56.762Z,101669.88
2022-08-29T18:44:24.467Z,101670.44
2022-08-29T18:46:50.998Z,101678.97
2022-08-29T18:49:17.832Z,101677.50
2022-08-29T18:51:44.147Z,101670.00
2022-08-29T18:54:14.214Z,101673.28
2022-08-29T18:56:42.599Z,101667.63
2022-08-29T18:59:08.919Z,101674.44
2022-08-29T19:01:35.387Z,101680.25
2022-08-29T19:04:01.858Z,101673.38
2022-08-29T19:06:28.297Z,101680.00
2022-08-29T19:08:55.534Z,101678.53
2022-08-29T19:11:23.234Z,101684.34
2022-08-29T19:13:52.399Z,101674.97
2022-08-29T19:16:20.113Z,101682.41
2022-08-29T19:18:46.535Z,101678.47
2022-08-29T19:21:12.870Z,101681.75
2022-08-29T19:23:40.654Z,101685.03
2022-08-29T19:26:08.346Z,101683.75
2022-08-29T19:28:37.479Z,101687.69
2022-08-29T19:31:03.938Z,101691.59
2022-08-29T19:33:30.268Z,101695.31
2022-08-29T19:35:56.609Z,101694.47
2022-08-29T19:38:23.070Z,101699.69
2022-08-29T19:40:49.889Z,101697.00
2022-08-29T19:43:17.132Z,101696.16
2022-08-29T19:45:44.952Z,101691.19
2022-08-29T19:48:15.338Z,101691.56
2022-08-29T19:50:42.111Z,101699.38
2022-08-29T19:53:08.463Z,101695.44
2022-08-29T19:55:36.828Z,101695.81
2022-08-29T19:58:03.154Z,101698.69
2022-08-29T20:00:31.513Z,101694.53
2022-08-29T20:02:59.294Z,101695.94
2022-08-29T20:05:25.603Z,101695.50
2022-08-29T20:07:52.100Z,101691.13
2022-08-29T20:10:19.887Z,101691.25
2022-08-29T20:12:48.016Z,101690.97
2022-08-29T20:15:14.432Z,101702.78
2022-08-29T20:17:40.862Z,101705.88
2022-08-29T20:20:10.833Z,101698.16
2022-08-29T20:22:37.184Z,101691.09
2022-08-29T20:25:03.754Z,101694.63
2022-08-29T20:27:33.933Z,101695.66
2022-08-29T20:30:00.871Z,101692.13
2022-08-29T20:32:27.182Z,101695.19
2022-08-29T20:34:53.494Z,101701.44
2022-08-29T20:37:21.167Z,101700.16
2022-08-29T20:39:47.467Z,101691.63
2022-08-29T20:42:14.663Z,101699.63
2022-08-29T20:44:41.003Z,101691.94
2022-08-29T20:47:07.816Z,101692.13
2022-08-29T20:49:36.775Z,101693.16
2022-08-29T20:52:04.182Z,101694.16
2022-08-29T20:54:32.186Z,101698.91
2022-08-29T20:56:58.485Z,101703.25
2022-08-29T20:59:26.677Z,101701.59
2022-08-29T21:01:53.636Z,101708.03
2022-08-29T21:04:20.745Z,101703.84
2022-08-29T21:06:47.639Z,101699.69
2022-08-29T21:09:13.958Z,101702.75
2022-08-29T21:11:41.598Z,101704.78
2022-08-29T21:14:07.916Z,101705.19
2022-08-29T21:16:34.311Z,101706.00
2022-08-29T21:19:00.715Z,101698.13
2022-08-29T21:21:27.031Z,101701.19
2022-08-29T21:23:53.337Z,101701.13
2022-08-29T21:26:19.671Z,101707.06
2022-08-29T21:28:47.396Z,101702.03
2022-08-29T21:31:14.212Z,101699.09
2022-08-29T21:33:41.705Z,101691.72
2022-08-29T21:36:09.607Z,101696.00
2022-08-29T21:38:35.940Z,101704.63
2022-08-29T21:41:02.519Z,101703.72
2022-08-29T21:43:28.820Z,101704.25
2022-08-29T21:45:56.474Z,101702.16
2022-08-29T21:48:22.771Z,101704.19
2022-08-29T21:50:53.173Z,101703.53
2022-08-29T21:53:19.482Z,101699.53
2022-08-29T21:55:45.778Z,101700.75
2022-08-29T21:58:12.079Z,101704.66
2022-08-29T22:00:38.375Z,101718.28
2022-08-29T22:03:06.753Z,101708.88
2022-08-29T22:05:33.616Z,101715.69
2022-08-29T22:08:00.283Z,101709.81
2022-08-29T22:10:28.359Z,101715.38
2022-08-29T22:12:54.679Z,101718.91
2022-08-29T22:15:21.039Z,101717.72
2022-08-29T22:17:47.367Z,101720.22
2022-08-29T22:20:15.112Z,101720.88
2022-08-29T22:22:41.437Z,101719.38
2022-08-29T22:25:08.095Z,101718.53
2022-08-29T22:27:34.737Z,101721.22
2022-08-29T22:30:01.499Z,101723.75
2022-08-29T22:32:27.816Z,101734.69
2022-08-29T22:35:02.091Z,101732.81
2022-08-29T22:37:29.861Z,101737.38
2022-08-29T22:39:56.203Z,101732.16
2022-08-29T22:42:22.680Z,101733.00
2022-08-29T22:45:04.769Z,101733.38
2022-08-29T22:47:31.130Z,101730.84
2022-08-29T22:49:57.438Z,101731.91
2022-08-29T22:52:23.771Z,101730.75
2022-08-29T22:54:51.447Z,101736.78
2022-08-29T22:57:18.196Z,101736.50
2022-08-29T22:59:45.113Z,101733.19
2022-08-29T23:02:11.870Z,101725.28
2022-08-29T23:04:38.471Z,101727.13
2022-08-29T23:07:05.182Z,101734.38
2022-08-29T23:09:35.478Z,101742.97
2022-08-29T23:12:03.842Z,101728.50
2022-08-29T23:14:31.620Z,101725.56
2022-08-29T23:16:57.944Z,101729.88
2022-08-29T23:19:24.263Z,101727.94
2022-08-29T23:21:50.594Z,101725.06
2022-08-29T23:24:17.659Z,101722.06
2022-08-29T23:26:44.018Z,101724.75
2022-08-29T23:29:11.697Z,101720.41
2022-08-29T23:31:38.104Z,101720.97
2022-08-29T23:34:04.571Z,101726.84
2022-08-29T23:36:30.908Z,101726.16
2022-08-29T23:38:57.384Z,101730.44
2022-08-29T23:41:23.815Z,101726.72
2022-08-29T23:43:50.130Z,101718.53
2022-08-29T23:46:18.087Z,101722.53
2022-08-29T23:48:44.444Z,101714.66
2022-08-29T23:51:12.035Z,101723.38
2022-08-29T23:53:38.362Z,101720.38
2022-08-29T23:56:07.530Z,101723.72
2022-08-29T23:58:33.877Z,101723.38
